Time;durP1;ratioP1;P1;durP2;ratioP2;P2;SDS_P1;SDS_P2;PMS_P1;PMS_P2;Temp;Humidity;BMP_temperature;BMP_pressure;BME280_temperature;BME280_humidity;BME280_pressure;Samples;Min_cycle;Max_cycle;Signal;HPM_P1;HPM_P2
2023/10/14 00:00:27;;;;;;;3.40;2.80;;;;;;;19.84;53.10;96244.31;10435733;28;20025;-28
2023/10/14 00:05:28;;;;;;;3.55;2.70;;;;;;;19.89;53.14;96245.06;10432560;28;20805;-29
2023/10/14 00:10:35;;;;;;;5.50;3.00;;;;;;;19.90;53.02;96236.59;10435519;28;20033;-28
2023/10/14 00:15:36;;;;;;;5.65;2.63;;;;;;;19.94;52.92;96236.53;10451358;28;20041;-29
2023/10/14 00:20:36;;;;;;;4.95;2.92;;;;;;;19.97;53.11;96246.69;10432036;28;20045;-29
2023/10/14 00:25:37;;;;;;;3.63;2.57;;;;;;;19.99;53.29;96223.75;10439410;28;20816;-29
2023/10/14 00:30:38;;;;;;;3.03;2.50;;;;;;;19.99;53.35;96233.94;10437465;28;20626;-29
2023/10/14 00:35:41;;;;;;;2.78;2.50;;;;;;;20.00;53.47;96226.28;10435089;28;20462;-29
2023/10/14 00:40:45;;;;;;;2.55;2.35;;;;;;;20.01;53.34;96244.94;10434781;28;20384;-28
2023/10/14 00:45:47;;;;;;;3.03;2.60;;;;;;;20.00;53.48;96230.56;10443531;28;20048;-29
2023/10/14 00:50:50;;;;;;;3.03;2.30;;;;;;;20.00;53.64;96228.00;10437654;28;20483;-30
2023/10/14 00:55:54;;;;;;;3.05;2.13;;;;;;;20.01;53.63;96233.06;10446813;28;20028;-28
2023/10/14 01:00:57;;;;;;;3.15;2.47;;;;;;;20.01;53.65;96220.34;10449761;28;20112;-29
2023/10/14 01:06:06;;;;;;;3.15;2.60;;;;;;;20.01;53.73;96214.44;10439562;28;20406;-30
2023/10/14 01:11:07;;;;;;;2.80;2.35;;;;;;;20.02;53.37;96213.56;10436803;28;20028;-29
2023/10/14 01:16:10;;;;;;;3.17;2.20;;;;;;;20.02;53.71;96223.75;10441501;28;20045;-29
2023/10/14 01:21:12;;;;;;;2.72;2.53;;;;;;;20.01;53.82;96206.81;10437280;28;20032;-29
2023/10/14 01:26:14;;;;;;;3.65;2.40;;;;;;;20.02;53.75;96204.22;10440988;28;20028;-30
2023/10/14 01:31:42;;;;;;;3.00;2.53;;;;;;;20.01;53.82;96186.50;10444918;28;20407;-29
2023/10/14 01:36:44;;;;;;;3.08;2.40;;;;;;;20.02;54.15;96183.09;10437021;28;20071;-28
2023/10/14 01:41:45;;;;;;;3.20;2.33;;;;;;;20.01;54.17;96196.66;10438618;28;20071;-29
2023/10/14 01:46:47;;;;;;;3.10;2.08;;;;;;;20.02;54.00;96198.34;10446862;28;20113;-30
2023/10/14 01:51:49;;;;;;;2.53;2.33;;;;;;;20.03;54.16;96194.94;10441329;28;20035;-28
2023/10/14 01:56:51;;;;;;;2.63;2.15;;;;;;;20.02;54.01;96198.34;10442864;28;20119;-28
2023/10/14 02:01:54;;;;;;;1.80;1.70;;;;;;;20.02;54.17;96183.09;10441514;28;20052;-28
2023/10/14 02:12:13;;;;;;;3.10;1.98;;;;;;;20.05;54.11;96170.34;10444408;28;21261;-29
2023/10/14 02:17:16;;;;;;;2.63;2.20;;;;;;;20.01;54.34;96153.47;10439162;28;20025;-29
2023/10/14 02:22:23;;;;;;;3.30;2.53;;;;;;;20.07;54.37;96163.53;10439799;28;20283;-29
2023/10/14 02:27:24;;;;;;;2.90;2.53;;;;;;;20.07;54.17;96173.72;10435471;28;20037;-29
2023/10/14 02:32:26;;;;;;;2.63;2.08;;;;;;;20.04;53.82;96172.06;10442791;28;20038;-29
2023/10/14 02:37:27;;;;;;;2.63;2.40;;;;;;;20.03;54.26;96159.34;10441246;28;20116;-29
2023/10/14 02:42:27;;;;;;;2.08;1.80;;;;;;;20.03;54.22;96177.13;10440304;28;20120;-29
2023/10/14 02:47:28;;;;;;;3.50;1.80;;;;;;;20.03;54.23;96154.25;10440478;28;20041;-29
2023/10/14 02:52:33;;;;;;;2.55;2.00;;;;;;;20.04;54.27;96161.03;10444515;28;20099;-28
2023/10/14 02:57:34;;;;;;;1.98;1.77;;;;;;;20.04;54.25;96153.41;10422814;28;20034;-29
2023/10/14 03:07:53;;;;;;;2.70;2.00;;;;;;;20.06;54.27;96179.66;10427867;28;20391;-28
2023/10/14 03:12:57;;;;;;;9.00;2.37;;;;;;;20.03;54.40;96169.50;10437374;28;20040;-29
2023/10/14 03:17:58;;;;;;;2.10;1.83;;;;;;;20.05;54.34;96183.06;10424511;28;20052;-29
2023/10/14 03:23:23;;;;;;;2.30;1.90;;;;;;;20.05;54.20;96183.06;10435302;28;20028;-29
2023/10/14 03:28:27;;;;;;;2.75;1.95;;;;;;;20.05;54.82;96183.06;10430441;28;20047;-29
2023/10/14 03:33:29;;;;;;;3.08;1.92;;;;;;;20.05;54.37;96188.16;10451817;28;20056;-29
2023/10/14 03:43:43;;;;;;;2.17;1.90;;;;;;;20.05;54.69;96177.97;10445162;28;20030;-28
2023/10/14 03:48:47;;;;;;;2.83;2.17;;;;;;;20.03;54.48;96184.75;10448665;28;20043;-29
2023/10/14 03:53:47;;;;;;;2.20;2.00;;;;;;;20.06;54.58;96167.81;10451011;28;20040;-28
2023/10/14 03:58:49;;;;;;;2.37;1.97;;;;;;;20.07;54.36;96191.50;10451133;28;20025;-29
2023/10/14 04:03:53;;;;;;;2.58;2.08;;;;;;;20.06;54.38;96198.28;10440262;28;20430;-30
2023/10/14 04:08:54;;;;;;;1.77;1.67;;;;;;;20.06;54.28;96210.16;10451985;28;20029;-29
2023/10/14 04:14:04;;;;;;;1.50;1.40;;;;;;;20.06;54.51;96205.91;10447227;28;20503;-28
2023/10/14 04:19:18;;;;;;;2.05;1.85;;;;;;;20.06;54.63;96211.00;10449506;28;20079;-28
2023/10/14 04:24:28;;;;;;;1.70;1.60;;;;;;;20.05;54.61;96213.56;10450021;28;20033;-29
2023/10/14 04:29:39;;;;;;;1.92;1.80;;;;;;;20.03;54.47;96187.31;10445203;28;20059;-29
2023/10/14 04:34:42;;;;;;;2.33;2.00;;;;;;;20.05;54.53;96208.47;10450461;28;20059;-29
2023/10/14 04:39:43;;;;;;;1.65;1.55;;;;;;;20.05;54.66;96203.38;10446279;28;20082;-29
2023/10/14 04:44:58;;;;;;;3.07;1.97;;;;;;;20.06;54.53;96207.59;10447840;28;20037;-28
2023/10/14 04:50:08;;;;;;;1.50;1.40;;;;;;;20.07;54.64;96206.75;10450946;28;20447;-29
2023/10/14 04:55:25;;;;;;;1.67;1.58;;;;;;;20.06;54.58;96220.31;10446772;28;20071;-29
2023/10/14 05:00:31;;;;;;;4.28;1.95;;;;;;;20.06;54.57;96225.41;10450756;28;20163;-29
2023/10/14 05:05:33;;;;;;;1.77;1.60;;;;;;;20.04;54.54;96222.91;10448802;28;20040;-28
2023/10/14 05:10:33;;;;;;;2.00;1.60;;;;;;;20.05;54.70;96226.25;10448308;28;20562;-29
2023/10/14 05:15:39;;;;;;;1.63;1.53;;;;;;;20.06;54.65;96225.41;10450663;28;20083;-28
2023/10/14 05:25:56;;;;;;;1.88;1.70;;;;;;;20.06;54.61;96222.84;10443629;28;20033;-29
2023/10/14 05:31:00;;;;;;;1.60;1.42;;;;;;;20.05;54.88;96239.81;10437935;28;20029;-28
2023/10/14 05:36:05;;;;;;;2.20;1.55;;;;;;;20.05;54.59;96231.34;10444304;28;20111;-28
2023/10/14 05:41:09;;;;;;;2.28;1.70;;;;;;;20.05;54.55;96227.13;10448166;28;20033;-29
2023/10/14 05:46:12;;;;;;;3.22;1.67;;;;;;;20.04;54.75;96215.28;10436783;28;20029;-29
2023/10/14 05:51:15;;;;;;;2.45;1.77;;;;;;;20.07;54.98;96224.53;10444129;28;20029;-29
2023/10/14 05:56:15;;;;;;;1.70;1.60;;;;;;;20.05;54.62;96233.88;10440501;28;20307;-29
2023/10/14 06:01:16;;;;;;;2.27;2.07;;;;;;;20.07;54.68;96247.41;10445221;28;20033;-29
2023/10/14 06:06:21;;;;;;;3.13;2.23;;;;;;;20.07;54.74;96247.41;10446418;28;20029;-28
2023/10/14 06:11:22;;;;;;;2.90;2.50;;;;;;;20.10;55.00;96249.94;10442549;28;20037;-29
2023/10/14 06:16:25;;;;;;;5.10;2.63;;;;;;;20.11;54.76;96266.84;10428440;28;20041;-29
2023/10/14 06:21:27;;;;;;;4.15;3.00;;;;;;;20.16;56.03;96267.59;10439796;28;20061;-29
2023/10/14 06:26:27;;;;;;;3.47;2.70;;;;;;;20.18;55.34;96271.00;10425718;28;20483;-29
2023/10/14 06:31:28;;;;;;;2.50;1.87;;;;;;;20.15;55.34;96260.84;10420094;28;20029;-29
2023/10/14 06:36:28;;;;;;;9.30;3.47;;;;;;;20.17;56.15;96279.47;10416321;28;21355;-28
2023/10/14 06:41:29;;;;;;;6.13;2.83;;;;;;;20.18;55.56;96271.00;10415041;28;20287;-30
2023/10/14 06:46:29;;;;;;;4.60;2.80;;;;;;;20.14;54.89;96274.41;10420181;28;20041;-30
2023/10/14 06:51:31;;;;;;;9.30;3.00;;;;;;;20.11;54.88;96284.63;10433990;28;20032;-28
2023/10/14 06:56:33;;;;;;;7.85;2.97;;;;;;;20.06;54.86;96294.00;10420797;28;20102;-29
2023/10/14 07:01:34;;;;;;;5.90;3.30;;;;;;;20.11;54.76;96299.88;10421387;28;20047;-28
2023/10/14 07:06:37;;;;;;;4.25;2.33;;;;;;;20.10;54.77;96316.00;10442327;28;20041;-28
2023/10/14 07:11:39;;;;;;;6.20;3.08;;;;;;;20.10;55.22;96344.78;10440069;28;20037;-29
2023/10/14 07:16:40;;;;;;;4.68;2.60;;;;;;;20.09;55.03;96321.94;10442069;28;20510;-29
2023/10/14 07:21:41;;;;;;;3.30;2.90;;;;;;;20.12;55.54;96326.97;10448069;28;20381;-29
2023/10/14 07:26:41;;;;;;;5.32;2.80;;;;;;;20.10;54.79;96321.09;10431758;28;20033;-29
2023/10/14 07:31:44;;;;;;;4.57;1.77;;;;;;;20.04;55.11;96323.66;10443253;28;20021;-30
2023/10/14 07:36:44;;;;;;;5.70;2.80;;;;;;;20.12;54.88;96338.00;10443550;28;20579;-27
2023/10/14 07:41:45;;;;;;;5.27;2.93;;;;;;;20.10;54.85;96328.72;10432958;28;20024;-29
2023/10/14 07:46:46;;;;;;;7.93;3.73;;;;;;;20.12;54.78;96342.22;10442445;28;20041;-29
2023/10/14 07:51:47;;;;;;;6.22;2.50;;;;;;;20.12;55.27;96344.78;10441980;28;20148;-29
2023/10/14 07:56:47;;;;;;;2.38;2.00;;;;;;;20.13;54.71;96346.44;10440738;28;20040;-29
2023/10/14 08:01:47;;;;;;;6.83;3.00;;;;;;;20.10;54.94;96343.97;10445312;28;20033;-29
2023/10/14 08:06:48;;;;;;;8.47;3.00;;;;;;;20.13;55.54;96354.06;10441744;28;20032;-28
2023/10/14 08:11:50;;;;;;;12.68;3.80;;;;;;;20.10;55.00;96366.81;10449209;28;20041;-28
2023/10/14 08:16:50;;;;;;;5.50;2.92;;;;;;;20.02;54.98;96340.63;10439583;28;20240;-28
2023/10/14 08:21:51;;;;;;;7.37;2.90;;;;;;;20.11;54.92;96348.19;10431495;28;20943;-29
2023/10/14 08:26:51;;;;;;;3.87;2.27;;;;;;;20.09;54.85;96345.63;10429456;28;20299;-29
2023/10/14 08:31:53;;;;;;;4.13;2.63;;;;;;;20.09;54.95;96342.28;10433763;28;20982;-28
2023/10/14 08:36:56;;;;;;;6.03;2.70;;;;;;;20.12;56.12;96352.41;10442067;28;20064;-28
2023/10/14 08:41:59;;;;;;;4.63;1.77;;;;;;;20.12;55.68;96352.41;10440539;28;20068;-29
2023/10/14 08:47:00;;;;;;;4.47;2.65;;;;;;;20.18;55.42;96342.97;10441706;28;20029;-28
2023/10/14 08:52:05;;;;;;;17.52;2.40;;;;;;;20.23;55.11;96350.53;10432148;28;20033;-28
2023/10/14 08:57:07;;;;;;;9.38;3.40;;;;;;;20.27;56.66;96353.03;10444408;28;20067;-28
2023/10/14 09:02:12;;;;;;;5.20;2.22;;;;;;;20.24;55.70;96358.16;10429918;28;20104;-28
2023/10/14 09:07:14;;;;;;;6.35;2.03;;;;;;;20.21;55.32;96362.44;10438020;28;20035;-29
2023/10/14 09:12:14;;;;;;;4.57;1.83;;;;;;;20.26;54.96;96373.41;10432938;28;20037;-30
2023/10/14 09:17:15;;;;;;;4.57;2.15;;;;;;;20.20;55.17;96366.72;10430263;28;20031;-29
2023/10/14 09:22:26;;;;;;;5.15;1.95;;;;;;;20.24;55.13;96370.88;10431175;28;20029;-28
2023/10/14 09:27:30;;;;;;;5.65;1.95;;;;;;;20.23;55.20;96361.56;10424929;28;20091;-28
2023/10/14 09:32:31;;;;;;;6.55;2.33;;;;;;;20.21;59.47;96368.38;10438636;28;20411;-28
2023/10/14 09:37:32;;;;;;;4.18;2.15;;;;;;;20.26;56.53;96361.53;10437179;28;20033;-30
2023/10/14 09:42:33;;;;;;;15.90;3.00;;;;;;;20.30;57.59;96382.66;10430552;28;20037;-29
2023/10/14 09:47:33;;;;;;;6.10;2.40;;;;;;;20.24;55.94;96362.41;10434134;28;20025;-29
2023/10/14 09:52:35;;;;;;;5.20;2.80;;;;;;;20.26;58.64;96381.03;10388581;28;20068;-28
2023/10/14 09:57:38;;;;;;;4.45;2.25;;;;;;;20.26;55.63;96373.41;10405945;28;20056;-29
2023/10/14 10:02:43;;;;;;;4.88;2.03;;;;;;;20.18;55.46;96347.25;10401781;28;20041;-30
2023/10/14 10:08:25;;;;;;;7.57;2.40;;;;;;;20.26;55.79;96348.00;10430180;28;20376;-30
2023/10/14 10:13:28;;;;;;;6.28;2.00;;;;;;;20.23;57.07;96356.50;10430999;28;20665;-28
2023/10/14 10:18:51;;;;;;;5.03;2.10;;;;;;;20.26;57.14;96361.53;10440233;28;20110;-29
2023/10/14 10:23:57;;;;;;;4.13;2.05;;;;;;;20.26;57.44;96364.06;10432808;28;20406;-29
2023/10/14 10:29:21;;;;;;;5.45;2.60;;;;;;;20.26;57.60;96364.06;10434054;28;20029;-29
2023/10/14 10:34:24;;;;;;;5.78;2.17;;;;;;;20.25;57.89;96359.03;10426954;28;20101;-30
2023/10/14 10:39:25;;;;;;;8.18;2.20;;;;;;;20.26;57.79;96355.63;10417452;28;21469;-33
2023/10/14 10:44:29;;;;;;;5.60;2.20;;;;;;;20.27;58.23;96349.66;10433613;28;20044;-28
2023/10/14 10:49:48;;;;;;;6.45;1.95;;;;;;;20.26;58.12;96340.38;10432630;28;20036;-29
2023/10/14 10:54:51;;;;;;;3.80;2.00;;;;;;;20.26;58.05;96342.91;10435391;28;20045;-28
2023/10/14 10:59:54;;;;;;;5.20;2.00;;;;;;;20.25;57.67;96344.59;10435743;28;20060;-29
2023/10/14 11:04:54;;;;;;;3.38;2.40;;;;;;;20.24;58.76;96337.81;10432838;28;20040;-28
2023/10/14 11:09:55;;;;;;;5.13;1.95;;;;;;;20.23;58.46;96328.53;10437773;28;20032;-30
2023/10/14 11:14:58;;;;;;;2.85;1.70;;;;;;;20.24;58.46;96306.47;10438002;28;20037;-28
2023/10/14 11:19:58;;;;;;;6.57;1.83;;;;;;;20.19;59.00;96288.75;10437816;28;20029;-30
2023/10/14 11:24:59;;;;;;;2.63;2.23;;;;;;;20.26;61.16;96325.09;10426923;28;20524;-30
2023/10/14 11:29:59;;;;;;;4.15;2.40;;;;;;;20.09;61.70;96363.44;10426894;28;20306;-29
2023/10/14 11:34:59;;;;;;;2.73;2.20;;;;;;;20.15;61.47;96387.94;10424052;28;20041;-29
2023/10/14 11:40:12;;;;;;;2.67;1.10;;;;;;;19.89;63.24;96394.97;10415065;28;20029;-29
2023/10/14 11:45:17;;;;;;;2.88;0.93;;;;;;;19.92;63.46;96422.91;10426892;28;20314;-29
2023/10/14 11:50:18;;;;;;;4.25;1.50;;;;;;;20.07;60.78;96445.63;10425924;28;20103;-28
2023/10/14 11:55:20;;;;;;;4.70;1.40;;;;;;;20.13;58.61;96460.81;10428192;28;20034;-29
2023/10/14 12:00:21;;;;;;;4.10;1.85;;;;;;;20.15;58.08;96481.97;10436466;28;20088;-28
2023/10/14 12:05:21;;;;;;;4.50;1.70;;;;;;;20.15;57.72;96485.38;10445731;28;20033;-29
2023/10/14 12:10:26;;;;;;;2.37;1.60;;;;;;;20.16;57.68;96497.22;10430233;28;20034;-28
2023/10/14 12:15:27;;;;;;;3.63;1.52;;;;;;;20.09;59.15;96535.44;10442682;28;20377;-29
2023/10/14 12:20:31;;;;;;;1.23;1.08;;;;;;;20.11;57.72;96548.97;10433794;28;20064;-28
2023/10/14 12:25:31;;;;;;;3.80;1.83;;;;;;;20.13;57.48;96547.25;10440233;28;20037;-29
2023/10/14 12:30:46;;;;;;;6.37;1.70;;;;;;;20.12;57.39;96543.88;10443431;28;20033;-29
2023/10/14 12:35:51;;;;;;;3.40;1.73;;;;;;;20.15;57.19;96561.63;10437855;28;20198;-29
2023/10/14 12:40:51;;;;;;;2.30;1.30;;;;;;;20.14;57.53;96575.19;10438192;28;20033;-28
2023/10/14 12:45:53;;;;;;;2.57;1.40;;;;;;;20.15;57.16;96578.56;10446471;28;20487;-28
2023/10/14 12:50:53;;;;;;;2.05;1.33;;;;;;;20.16;56.71;96575.16;10440385;28;20123;-28
2023/10/14 12:55:54;;;;;;;1.93;1.23;;;;;;;20.17;56.98;96592.13;10441064;28;20097;-29
2023/10/14 13:00:54;;;;;;;4.70;1.20;;;;;;;20.15;56.86;96593.81;10444701;28;20041;-30
2023/10/14 13:05:55;;;;;;;2.40;1.30;;;;;;;20.15;56.72;96588.72;10431756;28;20033;-29
2023/10/14 13:10:55;;;;;;;1.40;1.10;;;;;;;20.15;56.70;96592.13;10440184;28;20490;-29
2023/10/14 13:15:56;;;;;;;1.67;1.40;;;;;;;20.14;56.71;96590.44;10442173;28;20033;-30
2023/10/14 13:20:58;;;;;;;2.30;1.27;;;;;;;20.16;56.63;96592.94;10436746;28;20031;-29
2023/10/14 13:25:58;;;;;;;3.10;1.10;;;;;;;20.16;56.96;96596.34;10431921;28;20088;-28
2023/10/14 13:30:59;;;;;;;2.40;1.37;;;;;;;20.15;56.43;96601.44;10432663;28;20021;-29
2023/10/14 13:35:59;;;;;;;1.60;1.07;;;;;;;20.15;56.57;96602.28;10430281;28;20033;-29
2023/10/14 13:40:59;;;;;;;2.27;1.37;;;;;;;20.16;56.17;96608.19;10434806;28;20036;-29
2023/10/14 13:46:00;;;;;;;3.83;1.30;;;;;;;20.11;56.50;96602.34;10421615;28;20307;-27
2023/10/14 13:51:01;;;;;;;2.97;1.63;;;;;;;20.14;56.41;96609.94;10442946;28;20072;-29
2023/10/14 13:56:05;;;;;;;2.22;1.17;;;;;;;20.15;56.49;96620.09;10436945;28;20021;-29
2023/10/14 14:01:07;;;;;;;3.83;1.10;;;;;;;20.15;56.11;96611.59;10432440;28;20029;-29
2023/10/14 14:06:08;;;;;;;2.75;1.33;;;;;;;20.10;56.31;96616.72;10421732;28;20049;-29
2023/10/14 14:11:08;;;;;;;4.25;1.83;;;;;;;20.15;56.29;96632.81;10436887;28;20033;-28
2023/10/14 14:16:09;;;;;;;4.17;1.53;;;;;;;20.16;57.45;96648.88;10435979;28;20194;-29
2023/10/14 14:21:12;;;;;;;11.98;1.95;;;;;;;20.15;56.91;96647.19;10440067;28;20048;-28
2023/10/14 14:26:18;;;;;;;6.80;2.22;;;;;;;20.18;58.52;96625.13;10425345;28;20582;-29
2023/10/14 14:31:20;;;;;;;7.47;1.40;;;;;;;20.16;56.48;96634.47;10436574;28;20028;-28
2023/10/14 14:36:20;;;;;;;5.88;1.75;;;;;;;20.15;55.85;96648.06;10431661;28;20033;-29
2023/10/14 14:41:25;;;;;;;3.50;1.40;;;;;;;20.15;55.59;96648.06;10434471;28;20380;-28
2023/10/14 14:46:26;;;;;;;3.35;1.42;;;;;;;20.16;55.57;96659.03;10429664;28;20037;-29
2023/10/14 14:51:29;;;;;;;1.80;1.57;;;;;;;20.16;55.52;96674.28;10436868;28;20033;-29
2023/10/14 14:56:30;;;;;;;4.45;1.55;;;;;;;20.16;55.29;96684.47;10434520;28;20804;-29
2023/10/14 15:01:31;;;;;;;1.53;1.33;;;;;;;20.15;55.05;96692.94;10440966;28;20036;-29
2023/10/14 15:06:31;;;;;;;1.38;1.23;;;;;;;20.12;55.17;96710.78;10438360;28;20414;-28
2023/10/14 15:11:32;;;;;;;3.60;2.43;;;;;;;19.86;56.94;96702.44;10434703;28;20033;-28
2023/10/14 15:16:32;;;;;;;5.97;2.20;;;;;;;20.03;57.33;96708.25;10442102;28;20113;-28
2023/10/14 15:21:33;;;;;;;6.40;1.60;;;;;;;20.08;55.42;96714.19;10439360;28;20305;-28
2023/10/14 15:26:33;;;;;;;6.18;2.08;;;;;;;20.10;55.49;96709.94;10443891;28;20491;-29
2023/10/14 15:31:34;;;;;;;5.17;1.83;;;;;;;20.11;55.54;96717.53;10452254;28;20025;-29
2023/10/14 15:36:35;;;;;;;8.77;2.47;;;;;;;20.13;56.42;96720.94;10452352;28;20090;-29
2023/10/14 15:41:35;;;;;;;10.00;2.67;;;;;;;20.13;55.69;96738.72;10439100;28;20028;-28
2023/10/14 15:46:36;;;;;;;11.90;2.60;;;;;;;20.12;55.34;96741.28;10451324;28;20043;-29
2023/10/14 15:51:36;;;;;;;32.87;17.30;;;;;;;19.87;57.18;96737.16;10449298;28;20368;-28
2023/10/14 15:56:38;;;;;;;27.30;14.67;;;;;;;19.64;57.57;96749.97;10449408;28;20082;-28
2023/10/14 16:01:38;;;;;;;19.77;11.02;;;;;;;19.55;57.53;96754.22;10436694;28;20028;-28
2023/10/14 16:06:39;;;;;;;15.43;7.67;;;;;;;19.67;56.98;96761.81;10445836;28;20043;-28
2023/10/14 16:11:39;;;;;;;11.27;6.30;;;;;;;19.86;56.65;96769.31;10446807;28;20036;-30
2023/10/14 16:16:40;;;;;;;6.80;4.77;;;;;;;19.92;56.60;96776.94;10448696;28;20071;-29
2023/10/14 16:21:40;;;;;;;10.85;5.88;;;;;;;19.98;57.33;96781.97;10436502;28;20474;-29
2023/10/14 16:26:40;;;;;;;6.50;4.67;;;;;;;20.05;55.92;96790.44;10443791;28;20033;-30
2023/10/14 16:31:43;;;;;;;9.73;5.40;;;;;;;20.06;55.28;96803.16;10452581;28;20499;-29
2023/10/14 16:36:45;;;;;;;9.82;6.82;;;;;;;20.09;56.15;96799.75;10446260;28;20028;-29
2023/10/14 16:41:47;;;;;;;11.57;8.77;;;;;;;20.10;55.98;96806.53;10447857;28;20098;-28
2023/10/14 16:46:47;;;;;;;14.73;10.68;;;;;;;20.10;55.55;96816.69;10447650;28;20528;-28
2023/10/14 16:51:48;;;;;;;10.13;6.60;;;;;;;20.12;55.66;96817.53;10439632;28;20044;-29
2023/10/14 16:56:48;;;;;;;9.70;6.97;;;;;;;20.13;55.54;96831.94;10446232;28;20036;-28
2023/10/14 17:01:49;;;;;;;8.60;6.80;;;;;;;20.13;55.61;96845.50;10449153;28;20182;-29
2023/10/14 17:06:51;;;;;;;12.40;7.95;;;;;;;20.11;55.46;96846.34;10437906;28;20040;-29
2023/10/14 17:11:52;;;;;;;7.68;5.80;;;;;;;20.14;55.63;96851.41;10447016;28;20029;-29
2023/10/14 17:16:53;;;;;;;9.30;6.53;;;;;;;20.13;55.56;96858.19;10447699;28;20037;-30
2023/10/14 17:21:53;;;;;;;10.32;6.63;;;;;;;20.15;55.62;96870.88;10445744;28;20116;-28
2023/10/14 17:26:54;;;;;;;12.40;7.40;;;;;;;20.15;55.64;96878.50;10434881;28;20060;-28
2023/10/14 17:31:59;;;;;;;6.57;3.70;;;;;;;20.16;55.97;96892.91;10435113;28;20119;-28
2023/10/14 17:36:59;;;;;;;5.95;3.83;;;;;;;20.06;55.85;96883.63;10438547;28;20151;-28
2023/10/14 17:42:00;;;;;;;5.17;3.73;;;;;;;20.15;55.65;96912.41;10441910;28;20856;-28
2023/10/14 17:47:00;;;;;;;9.53;8.40;;;;;;;20.18;56.24;96920.03;10444525;28;20037;-30
2023/10/14 17:52:00;;;;;;;10.83;8.20;;;;;;;20.15;57.42;96926.81;10439437;28;20778;-29
2023/10/14 17:57:01;;;;;;;12.80;8.52;;;;;;;20.18;56.40;96926.81;10438301;28;20411;-29
2023/10/14 18:02:01;;;;;;;8.70;7.10;;;;;;;20.19;56.83;96933.59;10434153;28;20037;-30
2023/10/14 18:07:02;;;;;;;12.52;7.93;;;;;;;20.17;55.92;96932.75;10423863;28;20296;-28
2023/10/14 18:12:04;;;;;;;13.47;9.13;;;;;;;20.16;56.21;96929.34;10439007;28;20036;-29
2023/10/14 18:17:05;;;;;;;7.43;5.85;;;;;;;20.16;56.16;96933.59;10443466;28;20503;-29
2023/10/14 18:22:05;;;;;;;4.97;4.20;;;;;;;20.13;56.08;96923.44;10437295;28;20040;-29
2023/10/14 18:27:07;;;;;;;5.20;4.70;;;;;;;20.13;56.04;96944.63;10442532;28;20665;-29
2023/10/14 18:32:08;;;;;;;5.22;4.68;;;;;;;20.14;55.89;96937.84;10443499;28;20041;-28
2023/10/14 18:37:09;;;;;;;7.85;4.80;;;;;;;20.13;55.99;96933.59;10437945;28;20029;-29
2023/10/14 18:42:09;;;;;;;8.27;4.90;;;;;;;20.13;55.95;96949.72;10441903;28;20025;-29
2023/10/14 18:47:10;;;;;;;6.80;6.20;;;;;;;20.12;56.12;96937.84;10443979;28;20310;-29
2023/10/14 18:52:12;;;;;;;6.18;5.43;;;;;;;20.10;56.00;96938.72;10441615;28;20498;-29
2023/10/14 18:57:13;;;;;;;8.63;7.22;;;;;;;20.13;55.87;96943.78;10440565;28;20465;-29
2023/10/14 19:02:17;;;;;;;9.00;8.07;;;;;;;20.13;55.96;96944.63;10443467;28;20036;-28
2023/10/14 19:07:17;;;;;;;9.00;8.00;;;;;;;20.12;55.89;96955.66;10426694;28;20032;-29
2023/10/14 19:12:17;;;;;;;13.60;8.80;;;;;;;20.14;55.90;96953.09;10436856;28;20043;-29
2023/10/14 19:17:18;;;;;;;4.43;3.30;;;;;;;20.12;55.65;96958.19;10443573;28;20446;-28
2023/10/14 19:22:18;;;;;;;5.03;3.78;;;;;;;20.11;55.83;96964.09;10437473;28;20418;-29
2023/10/14 19:27:19;;;;;;;5.37;4.87;;;;;;;20.11;55.81;96974.28;10440434;28;20034;-28
2023/10/14 19:32:20;;;;;;;7.20;5.27;;;;;;;20.14;56.39;96976.81;10422942;28;20025;-29
2023/10/14 19:37:20;;;;;;;5.70;3.25;;;;;;;20.11;55.83;96973.44;10429748;28;20032;-28
2023/10/14 19:42:21;;;;;;;8.97;4.50;;;;;;;20.12;56.66;96982.75;10441999;28;20106;-28
2023/10/14 19:47:21;;;;;;;6.83;3.33;;;;;;;20.12;56.19;96972.59;10424218;28;20908;-29
2023/10/14 19:52:22;;;;;;;5.30;3.03;;;;;;;20.10;55.82;96979.38;10420670;28;20041;-28
2023/10/14 19:57:23;;;;;;;3.67;2.90;;;;;;;20.05;55.59;96979.38;10416878;28;20495;-29
2023/10/14 20:02:26;;;;;;;2.97;2.35;;;;;;;20.04;55.77;96979.34;10436320;28;20577;-28
2023/10/14 20:07:27;;;;;;;3.20;2.45;;;;;;;20.02;55.69;96991.22;10442687;28;20045;-29
2023/10/14 20:12:28;;;;;;;3.30;2.23;;;;;;;20.02;55.28;96991.22;10436268;28;20056;-29
2023/10/14 20:17:29;;;;;;;2.08;1.88;;;;;;;20.05;55.12;96996.31;10450591;28;20288;-28
2023/10/14 20:22:30;;;;;;;1.80;1.70;;;;;;;20.05;55.41;96996.31;10434353;28;20037;-29
2023/10/14 20:27:31;;;;;;;3.72;2.00;;;;;;;20.06;55.12;97003.09;10434014;28;20045;-30
2023/10/14 20:32:33;;;;;;;1.95;1.75;;;;;;;20.05;55.31;97003.94;10436226;28;20036;-29
2023/10/14 20:37:34;;;;;;;3.90;2.40;;;;;;;20.06;55.08;97003.94;10437605;28;20568;-28
2023/10/14 20:42:38;;;;;;;2.70;1.80;;;;;;;20.02;55.54;96996.31;10429692;28;20041;-29
2023/10/14 20:47:39;;;;;;;2.20;1.85;;;;;;;20.00;55.14;96993.75;10428606;28;20037;-29
2023/10/14 20:52:40;;;;;;;2.17;1.70;;;;;;;19.97;55.14;96993.78;10427571;28;20404;-29
2023/10/14 20:57:41;;;;;;;2.53;1.60;;;;;;;19.97;55.03;96998.00;10417081;28;20036;-29
2023/10/14 21:02:41;;;;;;;2.70;1.63;;;;;;;19.97;54.89;96995.47;10444313;28;20037;-29
2023/10/14 21:07:44;;;;;;;6.35;2.30;;;;;;;19.99;55.10;96988.66;10433373;28;20035;-30
2023/10/14 21:12:46;;;;;;;1.40;1.00;;;;;;;19.98;54.82;97002.22;10439763;28;20036;-29
2023/10/14 21:17:46;;;;;;;3.25;1.60;;;;;;;19.96;54.97;97007.34;10433387;28;20063;-28
2023/10/14 21:22:49;;;;;;;3.07;1.40;;;;;;;19.96;54.68;97011.56;10438992;28;20067;-29
2023/10/14 21:27:49;;;;;;;2.75;1.23;;;;;;;19.94;54.46;97015.81;10431051;28;20037;-28
2023/10/14 21:32:50;;;;;;;2.00;1.40;;;;;;;19.93;54.39;97011.56;10437692;28;20040;-28
2023/10/14 21:37:50;;;;;;;1.20;0.93;;;;;;;19.92;54.26;97000.53;10435717;28;20287;-29
2023/10/14 21:42:53;;;;;;;1.43;0.80;;;;;;;19.91;54.38;97005.66;10440829;28;20036;-28
2023/10/14 21:47:54;;;;;;;3.30;1.08;;;;;;;19.90;54.16;97007.34;10441939;28;20470;-28
2023/10/14 21:52:54;;;;;;;2.53;1.63;;;;;;;19.90;54.06;97006.47;10436884;28;20040;-29
2023/10/14 21:57:57;;;;;;;1.67;0.90;;;;;;;19.89;53.93;96998.03;10430243;28;20039;-29
2023/10/14 22:02:57;;;;;;;2.67;1.05;;;;;;;19.90;53.89;97002.25;10442491;28;20036;-29
2023/10/14 22:07:57;;;;;;;1.20;1.00;;;;;;;19.88;53.87;96990.38;10431895;28;20036;-29
2023/10/14 22:12:58;;;;;;;1.20;0.70;;;;;;;19.87;53.91;96983.63;10431554;28;20487;-29
2023/10/14 22:18:00;;;;;;;1.92;0.65;;;;;;;19.87;53.71;96987.03;10433845;28;20029;-29
2023/10/14 22:23:10;;;;;;;2.00;1.25;;;;;;;19.85;53.66;96977.69;10435065;28;20087;-29
2023/10/14 22:28:15;;;;;;;2.25;1.35;;;;;;;19.86;53.48;96971.75;10446336;28;20116;-29
2023/10/14 22:33:15;;;;;;;3.28;0.80;;;;;;;19.86;53.47;96962.44;10434533;28;20025;-29
2023/10/14 22:38:16;;;;;;;3.10;0.93;;;;;;;19.86;53.47;96959.06;10432226;28;20588;-29
2023/10/14 22:43:16;;;;;;;3.10;0.93;;;;;;;19.85;53.31;96959.91;10438190;28;20516;-28
2023/10/14 22:48:16;;;;;;;2.10;0.70;;;;;;;19.85;53.18;96957.38;10432760;28;20033;-29
2023/10/14 22:53:18;;;;;;;4.47;1.10;;;;;;;19.85;53.18;96959.91;10448015;28;20028;-29
2023/10/14 22:58:18;;;;;;;2.65;0.95;;;;;;;19.85;53.09;96957.38;10445385;28;20025;-29
2023/10/14 23:03:18;;;;;;;1.80;0.82;;;;;;;19.84;52.89;96955.69;10428681;28;20414;-28
2023/10/14 23:08:20;;;;;;;1.43;0.80;;;;;;;19.84;53.06;96945.50;10431267;28;20033;-29
2023/10/14 23:13:23;;;;;;;1.80;0.77;;;;;;;19.84;52.68;96946.34;10438882;28;20059;-29
2023/10/14 23:18:24;;;;;;;0.98;0.60;;;;;;;19.83;52.89;96954.00;10434384;28;20116;-28
2023/10/14 23:23:24;;;;;;;1.73;0.90;;;;;;;19.83;52.81;96957.38;10435033;28;20041;-28
2023/10/14 23:28:24;;;;;;;1.37;0.70;;;;;;;19.82;52.66;96953.13;10443235;28;20037;-29
2023/10/14 23:33:25;;;;;;;2.13;1.00;;;;;;;19.81;52.58;96942.97;10434041;28;20704;-29
2023/10/14 23:38:25;;;;;;;1.37;0.60;;;;;;;19.82;52.61;96942.97;10446424;28;20036;-28
2023/10/14 23:43:25;;;;;;;2.33;0.87;;;;;;;19.82;52.59;96944.66;10442369;28;20051;-30